Latest Weather Observations for Richmond

IDN60801

Issued at 6:23 pm EST Saturday 9 May 2026 (issued every 10 minutes, with the page automatically refreshed every 10 minutes)

About weather observations | Map of weather stations | Latest weather observations for NSW | Other Formats
Station Details ID: 067105 Name: RICHMOND RAAF Lat: -33.60 Lon: 150.78 Height: 19.0 m
Data from the previous 72 hours. | See also: Recent months at Richmond
Date/Time
EST
Temp
°C
App
Temp
°C
Dew
Point
°C
Rel
Hum
%
Delta-T
°C
Wind Press
QNH
hPa
Press
MSL
hPa
Rain since
9am
mm
Dir  Spd
km/h
Gust
km/h
Spd
kts
Gust
kts
09/06:00pm 15.4 13.8 8.9 65 3.3 ESE 7 11 4 6 1024.6 1024.6 0.0
09/05:30pm 15.7 15.3 8.2 61 3.8 CALM 0 0 0 0 1024.0 1024.0 0.0
09/05:00pm 18.0 17.6 8.3 53 5.0 CALM 0 0 0 0 1023.7 1023.7 0.0
09/04:30pm 19.9 18.4 8.3 47 6.0 N 6 7 3 4 1023.4 1023.4 0.0
09/04:00pm 19.8 18.0 7.9 46 6.1 N 7 9 4 5 1023.1 1023.1 0.0
09/03:30pm 20.6 18.7 7.6 43 6.7 NNE 7 11 4 6 1023.0 1023.0 0.0
09/03:00pm 21.3 19.7 8.6 44 6.7 NNE 7 11 4 6 1022.9 1022.9 0.0
09/02:30pm 20.7 19.3 7.3 42 6.9 N 4 9 2 5 1023.0 1023.0 0.0
09/02:00pm 21.4 19.4 7.3 40 7.2 NNW 7 13 4 7 1023.0 1023.0 0.0
09/01:30pm 21.2 19.3 7.4 41 7.1 SE 7 13 4 7 1023.2 1023.2 0.0
09/01:00pm 20.8 18.8 7.1 41 7.0 SSW 7 11 4 6 1023.5 1023.5 0.0
09/12:30pm 20.2 18.3 6.9 42 6.7 S 6 13 3 7 1024.0 1024.0 0.0
09/12:00pm 20.3 18.8 8.6 47 6.1 SSE 6 13 3 7 1024.4 1024.4 0.0
09/11:30am 19.2 17.6 7.9 48 5.8 SSW 6 13 3 7 1024.9 1024.9 0.0
09/11:00am 18.5 17.4 8.5 52 5.1 E 4 9 2 5 1025.2 1025.2 0.0
09/10:30am 17.7 16.4 9.1 57 4.5 N 6 7 3 4 1025.4 1025.4 0.0
09/10:00am 15.1 14.5 8.8 66 3.2 W 2 6 1 3 1025.6 1025.6 0.0
09/09:30am 13.3 13.1 9.2 76 2.1 CALM 0 0 0 0 1025.7 1025.7 0.0
09/09:00am 11.0 9.4 8.8 86 1.1 NNW 7 9 4 5 1025.8 1025.8 0.0
09/08:30am 10.1 9.7 8.4 89 0.8 CALM 0 0 0 0 1025.6 1025.6 0.0
09/08:00am 8.0 7.3 6.9 93 0.5 CALM 0 0 0 0 1025.4 1025.4 0.0
09/07:30am 5.9 4.8 5.2 95 0.3 CALM 0 0 0 0 1025.1 1025.1 0.0
09/07:13am 5.0 3.8 4.4 96 0.3 CALM 0 0 0 0 1024.9 1024.9 0.0
09/07:00am 4.0 2.5 3.1 94 0.4 CALM 0 0 0 0 1024.8 1024.8 0.0
09/06:52am 3.8 2.3 2.9 94 0.4 CALM 0 0 0 0 1024.6 1024.6 0.0
09/06:30am 4.2 2.8 3.3 94 0.4 CALM 0 0 0 0 1024.3 1024.3 0.0
09/06:00am 4.8 3.5 4.1 95 0.3 CALM 0 0 0 0 1024.0 1024.0 0.0
09/05:30am 4.8 3.5 4.1 95 0.3 CALM 0 0 0 0 1023.6 1023.6 0.0
09/05:19am 4.3 2.9 3.4 94 0.4 CALM 0 0 0 0 1023.4 1023.4 0.0
09/05:07am 5.6 4.5 4.9 95 0.3 CALM 0 0 0 0 1023.3 1023.3 0.0
09/05:00am 5.1 3.8 4.2 94 0.4 CALM 0 0 0 0 1023.3 1023.3 0.0
09/04:36am 4.8 3.4 3.8 93 0.4 CALM 0 0 0 0 1023.2 1023.2 0.0
09/04:30am 4.9 3.6 3.9 93 0.4 CALM 0 0 0 0 1023.1 1023.1 0.0
09/04:25am 4.7 3.3 3.5 92 0.5 CALM 0 0 0 0 1023.2 1023.2 0.0
09/04:00am 5.4 4.2 4.4 93 0.4 CALM 0 0 0 0 1022.8 1022.8 0.0
09/03:30am 5.8 4.6 4.8 93 0.4 CALM 0 0 0 0 1022.7 1022.7 0.0
09/03:00am 5.9 4.7 4.5 91 0.6 CALM 0 0 0 0 1022.7 1022.7 0.0
09/02:30am 6.2 5.0 4.8 91 0.6 CALM 0 2 0 1 1022.7 1022.7 0.0
09/02:00am 6.8 5.8 5.4 91 0.6 CALM 0 0 0 0 1022.7 1022.7 0.0
09/01:30am 5.8 4.5 4.0 88 0.8 CALM 0 0 0 0 1022.5 1022.5 0.0
09/01:00am 7.4 6.1 6.0 91 0.6 NW 2 6 1 3 1022.7 1022.7 0.0
09/12:30am 6.7 5.6 4.9 88 0.8 CALM 0 0 0 0 1022.7 1022.7 0.0
09/12:00am 7.1 6.0 4.9 86 1.0 CALM 0 6 0 3 1022.5 1022.5 0.0
 
Date/Time
EST
Temp
°C
App
Temp
°C
Dew
Point
°C
Rel
Hum
%
Delta-T
°C
Wind Press
QNH
hPa
Press
MSL
hPa
Rain since
9am
mm
Dir  Spd
km/h
Gust
km/h
Spd
kts
Gust
kts
08/11:30pm 7.5 6.4 5.1 85 1.1 CALM 0 0 0 0 1022.4 1022.4 0.0
08/11:00pm 8.4 7.5 5.9 84 1.1 CALM 0 0 0 0 1022.3 1022.3 0.0
08/10:30pm 8.7 7.8 6.0 83 1.2 CALM 0 0 0 0 1022.5 1022.5 0.0
08/10:00pm 8.2 7.1 5.3 82 1.3 CALM 0 0 0 0 1022.4 1022.4 0.0
08/09:30pm 9.5 8.5 5.7 77 1.7 CALM 0 0 0 0 1022.2 1022.2 0.0
08/09:00pm 9.7 7.9 5.3 74 2.0 ENE 4 9 2 5 1022.0 1022.0 0.0
08/08:30pm 10.7 9.3 5.3 69 2.5 WSW 2 7 1 4 1021.7 1021.7 0.0
08/08:00pm 11.5 10.6 6.0 69 2.6 CALM 0 0 0 0 1021.4 1021.4 0.0
08/07:30pm 13.1 11.4 5.8 61 3.4 W 4 11 2 6 1021.1 1021.1 0.0
08/07:00pm 14.9 11.6 6.2 56 4.2 SW 13 17 7 9 1020.6 1020.6 0.0
08/06:30pm 14.9 11.9 6.0 55 4.3 SW 11 15 6 8 1020.3 1020.3 0.0
08/06:00pm 16.2 11.4 5.8 50 5.0 SW 20 28 11 15 1019.7 1019.7 0.0
08/05:30pm 16.2 12.0 5.5 49 5.1 WSW 17 22 9 12 1019.2 1019.2 0.0
08/05:00pm 17.2 13.0 5.5 46 5.6 WSW 17 24 9 13 1018.5 1018.5 0.0
08/04:30pm 18.3 13.5 4.8 41 6.5 SW 19 26 10 14 1017.9 1017.9 0.0
08/04:00pm 19.7 14.8 5.0 38 7.1 SW 20 28 11 15 1017.5 1017.5 0.0
08/03:30pm 20.5 15.1 4.5 35 7.8 SW 22 32 12 17 1017.1 1017.1 0.0
08/03:00pm 20.6 15.7 5.0 36 7.6 WSW 20 30 11 16 1016.6 1016.6 0.0
08/02:30pm 21.0 16.4 5.4 36 7.7 W 19 28 10 15 1016.2 1016.2 0.0
08/02:00pm 21.5 16.7 5.4 35 8.0 WSW 20 26 11 14 1016.3 1016.3 0.0
08/01:30pm 21.3 16.0 4.8 34 8.1 W 22 32 12 17 1016.4 1016.4 0.0
08/01:00pm 21.4 16.2 5.3 35 8.0 WSW 22 35 12 19 1016.7 1016.7 0.0
08/12:30pm 21.2 16.9 5.1 35 7.9 WSW 17 30 9 16 1017.2 1017.2 0.0
08/12:00pm 19.9 16.9 5.9 40 6.9 WNW 11 22 6 12 1017.4 1017.4 0.0
08/11:30am 18.8 15.9 4.6 39 6.8 SW 9 17 5 9 1018.1 1018.1 0.0
08/11:00am 18.6 15.8 5.1 41 6.5 ESE 9 17 5 9 1018.6 1018.6 0.0
08/10:30am 18.3 16.0 5.5 43 6.2 SSE 7 13 4 7 1018.7 1018.7 0.0
08/10:00am 18.0 15.4 5.9 45 5.9 NW 9 15 5 8 1018.8 1018.8 0.0
08/09:30am 16.5 14.2 5.5 48 5.3 N 7 13 4 7 1018.8 1018.8 0.0
08/09:00am 14.5 12.2 5.6 55 4.2 NE 7 11 4 6 1019.0 1019.0 0.0
08/08:30am 12.3 9.3 6.1 66 2.9 NE 11 13 6 7 1018.7 1018.7 0.0
08/08:00am 8.8 5.9 4.4 74 1.9 N 9 13 5 7 1018.8 1018.8 0.0
08/07:30am 6.4 4.6 3.7 83 1.1 NNW 2 6 1 3 1018.8 1018.8 0.0
08/07:00am 5.2 3.1 2.0 80 1.3 NNE 2 9 1 5 1018.7 1018.7 0.0
08/06:30am 4.2 2.1 1.4 82 1.1 ESE 2 7 1 4 1018.6 1018.6 0.0
08/06:00am 4.5 1.7 1.9 83 1.0 NE 6 7 3 4 1018.5 1018.5 0.0
08/05:30am 4.2 1.3 1.7 84 1.0 NNE 6 7 3 4 1018.6 1018.6 0.0
08/05:00am 3.9 2.1 1.3 83 1.0 CALM 0 0 0 0 1018.9 1018.9 0.0
08/04:30am 4.7 2.3 2.2 84 1.0 SE 4 6 2 3 1018.5 1018.5 0.0
08/04:00am 4.1 1.2 1.3 82 1.1 NNE 6 11 3 6 1018.5 1018.5 0.0
08/03:30am 4.7 1.9 1.9 82 1.1 ESE 6 11 3 6 1018.8 1018.8 0.0
08/03:00am 5.2 1.9 2.2 81 1.2 ESE 9 11 5 6 1018.9 1018.9 0.0
08/02:30am 4.6 1.3 0.0 72 1.7 NE 7 11 4 6 1019.1 1019.1 0.0
08/02:00am 5.3 2.2 0.3 70 1.9 ESE 6 7 3 4 1019.5 1019.5 0.0
08/01:30am 5.7 3.0 0.3 68 2.1 N 4 7 2 4 1019.6 1019.6 0.0
08/01:00am 5.5 3.6 0.3 69 2.0 CALM 0 0 0 0 1019.8 1019.8 0.0
08/12:30am 5.8 2.6 -0.3 65 2.3 W 6 7 3 4 1020.0 1020.0 0.0
08/12:00am 7.8 3.7 -0.4 56 3.2 W 11 15 6 8 1020.1 1020.1 0.0
 
Date/Time
EST
Temp
°C
App
Temp
°C
Dew
Point
°C
Rel
Hum
%
Delta-T
°C
Wind Press
QNH
hPa
Press
MSL
hPa
Rain since
9am
mm
Dir  Spd
km/h
Gust
km/h
Spd
kts
Gust
kts
07/11:30pm 8.8 5.0 -0.5 52 3.6 WNW 9 11 5 6 1020.1 1020.1 0.0
07/11:00pm 7.2 4.0 -0.5 58 3.0 WNW 6 7 3 4 1020.1 1020.1 0.0
07/10:30pm 9.0 5.7 -0.9 50 3.9 SW 6 9 3 5 1019.9 1019.9 0.0
07/10:00pm 9.8 6.0 -0.7 48 4.1 WSW 9 19 5 10 1020.2 1020.2 0.0
07/09:30pm 9.9 5.4 -0.6 48 4.2 W 13 20 7 11 1020.3 1020.3 0.0
07/09:00pm 9.8 6.0 -1.0 47 4.2 W 9 13 5 7 1020.3 1020.3 0.0
07/08:30pm 9.7 5.2 -0.5 49 4.0 W 13 20 7 11 1020.0 1020.0 0.0
07/08:00pm 9.1 5.3 -0.8 50 3.9 N 9 11 5 6 1019.6 1019.6 0.0
07/07:30pm 10.8 7.0 -0.9 44 4.6 WNW 9 13 5 7 1019.4 1019.4 0.0
07/07:00pm 11.1 7.2 -1.3 42 4.9 WSW 9 15 5 8 1019.0 1019.0 0.0
07/06:30pm 12.2 6.4 -1.3 39 5.4 WSW 19 30 10 16 1018.2 1018.2 0.0
07/06:00pm 12.3 6.5 -1.6 38 5.5 WSW 19 26 10 14 1017.9 1017.9 0.0
07/05:30pm 13.1 6.3 -1.6 36 5.9 W 24 39 13 21 1017.4 1017.4 0.0
07/05:00pm 13.9 7.1 -1.7 34 6.3 W 24 32 13 17 1017.2 1017.2 0.0
07/04:30pm 15.0 8.2 -1.5 32 6.7 SW 24 35 13 19 1017.1 1017.1 0.0
07/04:00pm 15.9 8.2 -2.6 28 7.4 SW 28 43 15 23 1016.8 1016.8 0.0
07/03:30pm 16.2 8.6 -2.3 28 7.5 W 28 50 15 27 1016.2 1016.2 0.0
07/03:09pm 16.3 8.3 -2.7 27 7.7 WSW 30 48 16 26 1016.1 1016.1 0.0
07/03:00pm 16.1 7.6 -3.4 26 7.7 WSW 32 43 17 23 1016.1 1016.1 0.0
07/02:46pm 16.7 8.1 -2.9 26 7.9 W 33 52 18 28 1015.9 1015.9 0.0
07/02:30pm 16.7 8.2 -3.4 25 8.0 WSW 32 43 17 23 1015.6 1015.6 0.0
07/02:22pm 16.8 7.7 -3.3 25 8.0 W 35 54 19 29 1015.4 1015.4 0.0
07/02:00pm 16.8 8.3 -3.3 25 8.0 W 32 46 17 25 1015.4 1015.4 0.0
07/01:31pm 17.6 9.7 -4.3 22 8.7 WSW 28 46 15 25 1015.2 1015.2 0.0
07/01:30pm 17.7 9.5 -4.3 22 8.7 WSW 30 46 16 25 1015.1 1015.1 0.0
07/01:00pm 17.6 9.4 -4.3 22 8.7 WSW 30 41 16 22 1015.0 1015.0 0.0
07/12:37pm 17.6 9.7 -4.3 22 8.7 WSW 28 48 15 26 1015.0 1015.0 0.0
07/12:30pm 18.1 11.6 -2.2 25 8.4 WSW 22 33 12 18 1015.1 1015.1 0.0
07/12:00pm 18.2 11.1 -1.6 26 8.3 WSW 26 41 14 22 1015.2 1015.2 0.0
07/11:30am 17.9 9.5 1.4 33 7.4 WNW 35 46 19 25 1015.0 1015.0 0.0
07/11:04am 17.6 8.9 4.2 41 6.3 W 39 57 21 31 1015.0 1015.0 0.0
07/11:00am 17.1 8.0 3.8 41 6.2 W 41 57 22 31 1015.0 1015.0 0.0
07/10:32am 17.4 10.4 4.0 41 6.3 W 30 54 16 29 1014.6 1014.6 0.0
07/10:30am 17.7 11.6 4.6 42 6.2 W 26 39 14 21 1014.6 1014.6 0.0
07/10:00am 18.4 14.0 7.2 48 5.6 NW 20 33 11 18 1014.3 1014.3 0.0
07/09:30am 18.2 13.8 7.6 50 5.4 WNW 20 37 11 20 1014.3 1014.3 0.0
07/09:00am 16.9 12.7 7.5 54 4.7 WNW 19 26 10 14 1014.4 1014.4 0.0
07/08:30am 15.3 11.9 7.8 61 3.7 N 15 20 8 11 1014.3 1014.3 0.0
07/08:00am 12.9 10.4 8.4 74 2.2 N 11 15 6 8 1014.3 1014.3 0.0
07/07:30am 10.8 7.6 6.9 77 1.8 N 13 15 7 8 1014.2 1014.2 0.0
07/07:00am 9.2 6.0 6.8 85 1.1 NNE 13 17 7 9 1014.1 1014.1 0.0
07/06:30am 9.2 8.2 5.4 77 1.7 CALM 0 0 0 0 1013.9 1013.9 0.0
07/06:00am 10.4 6.3 6.4 76 1.9 WNW 17 22 9 12 1014.0 1014.0 0.0
07/05:30am 6.9 4.6 5.5 91 0.6 WSW 7 15 4 8 1014.0 1014.0 0.0
07/05:00am 7.8 5.7 6.6 92 0.6 W 7 11 4 6 1013.6 1013.6 0.0
07/04:30am 7.9 6.5 5.5 85 1.1 NW 2 7 1 4 1013.2 1013.2 0.0
07/04:00am 8.9 6.5 6.9 87 0.9 SW 9 13 5 7 1013.4 1013.4 0.0
07/03:30am 9.9 7.4 8.0 88 0.9 NNW 11 11 6 6 1013.5 1013.5 0.0
07/03:00am 9.5 7.0 8.1 91 0.7 NW 11 13 6 7 1013.7 1013.7 0.0
07/02:35am 9.9 8.6 9.1 95 0.4 NW 6 9 3 5 1014.0 1014.0 0.0
07/02:30am 10.1 8.8 9.3 95 0.4 NNW 6 11 3 6 1014.1 1014.1 0.0
07/02:00am 9.6 8.2 8.8 95 0.4 N 6 7 3 4 1014.4 1014.4 0.0
07/01:49am 9.2 8.1 8.3 94 0.4 NNE 4 9 2 5 1014.4 1014.4 0.0
07/01:42am 9.5 7.9 8.7 95 0.4 N 7 11 4 6 1014.5 1014.5 0.0
07/01:30am 9.8 7.9 8.9 94 0.4 NNW 9 17 5 9 1014.6 1014.6 0.0
07/01:23am 9.8 9.2 9.0 95 0.4 SW 2 9 1 5 1014.6 1014.6 0.0
07/01:05am 9.7 8.1 8.8 94 0.4 NNW 7 9 4 5 1014.9 1014.9 0.0
07/01:00am 9.4 7.7 8.3 93 0.5 NNW 7 9 4 5 1014.9 1014.9 0.0
07/12:45am 9.2 8.7 7.8 91 0.7 CALM 0 0 0 0 1014.9 1014.9 0.0
07/12:35am 10.3 10.1 9.2 93 0.5 CALM 0 0 0 0 1015.0 1015.0 0.0
07/12:30am 10.5 10.4 9.4 93 0.5 CALM 0 0 0 0 1015.0 1015.0 0.0
07/12:21am 11.0 11.0 9.9 93 0.6 CALM 0 0 0 0 1015.0 1015.0 0.0
07/12:00am 11.5 11.7 10.4 93 0.6 CALM 0 0 0 0 1015.0 1015.0 0.0
 
Date/Time
EST
Temp
°C
App
Temp
°C
Dew
Point
°C
Rel
Hum
%
Delta-T
°C
Wind Press
QNH
hPa
Press
MSL
hPa
Rain since
9am
mm
Dir  Spd
km/h
Gust
km/h
Spd
kts
Gust
kts
06/11:30pm 11.6 11.7 10.2 91 0.7 CALM 0 0 0 0 1014.9 1014.9 0.0
06/11:00pm 12.6 13.0 11.3 92 0.7 CALM 0 0 0 0 1015.2 1015.2 0.0
06/10:30pm 13.3 13.8 11.5 89 1.0 CALM 0 0 0 0 1015.6 1015.6 0.0
06/10:00pm 13.7 14.3 11.9 89 1.0 CALM 0 0 0 0 1016.1 1016.1 0.0
06/09:30pm 14.0 13.9 12.2 89 1.0 SW 4 7 2 4 1016.2 1016.2 0.0
06/09:00pm 13.6 13.0 11.7 88 1.0 NNW 6 7 3 4 1016.2 1016.2 0.0
06/08:30pm 13.6 14.2 12.0 90 0.9 CALM 0 0 0 0 1016.4 1016.4 0.0
06/08:00pm 14.4 15.0 11.9 85 1.3 CALM 0 0 0 0 1016.4 1016.4 0.0
06/07:32pm 14.2 14.4 10.6 79 1.9 CALM 0 0 0 0 1016.4 1016.4 0.0
06/07:30pm 14.2 14.4 10.6 79 1.9 CALM 0 0 0 0 1016.4 1016.4 0.0
06/07:09pm 15.2 15.6 11.4 78 2.0 CALM 0 0 0 0 1016.3 1016.3 0.0
06/07:00pm 15.2 15.6 11.2 77 2.1 CALM 0 0 0 0 1016.3 1016.3 0.0
06/06:30pm 16.6 16.1 12.0 74 2.5 NNE 6 7 3 4 1016.2 1016.2 0.0

Other formats

Comma delimited format used in spreadsheet applications
http://www.bom.gov.au/fwo/IDN60801/IDN60801.95753.axf

JavaScript Object Notation format (JSON) in row-major order
http://www.bom.gov.au/fwo/IDN60801/IDN60801.95753.json

Data quality

Most of these data are generated automatically and are frequently updated. Quality checks on data are not normally performed. It is possible for incorrect values to appear. Refer to information at About Latest Weather Observations and please check the disclaimer before using these data.